sensor_id;sensor_type;location;lat;lon;timestamp;P1;durP1;ratioP1;P2;durP2;ratioP2
2257;SDS011;1136;51.574;7.706;2023-05-10T00:00:43;14.30;;;9.53;;
2257;SDS011;1136;51.574;7.706;2023-05-10T00:03:09;11.60;;;9.27;;
2257;SDS011;1136;51.574;7.706;2023-05-10T00:05:36;9.93;;;8.30;;
2257;SDS011;1136;51.574;7.706;2023-05-10T00:08:02;10.17;;;8.53;;
2257;SDS011;1136;51.574;7.706;2023-05-10T00:10:29;8.70;;;7.80;;
2257;SDS011;1136;51.574;7.706;2023-05-10T00:12:56;11.97;;;6.00;;
2257;SDS011;1136;51.574;7.706;2023-05-10T00:15:22;7.30;;;5.43;;
2257;SDS011;1136;51.574;7.706;2023-05-10T00:17:49;6.23;;;4.50;;
2257;SDS011;1136;51.574;7.706;2023-05-10T00:20:15;6.27;;;4.73;;
2257;SDS011;1136;51.574;7.706;2023-05-10T00:22:43;5.80;;;5.23;;
2257;SDS011;1136;51.574;7.706;2023-05-10T00:25:09;5.00;;;4.60;;
2257;SDS011;1136;51.574;7.706;2023-05-10T00:27:37;4.07;;;3.77;;
2257;SDS011;1136;51.574;7.706;2023-05-10T00:30:03;4.60;;;4.20;;
2257;SDS011;1136;51.574;7.706;2023-05-10T00:32:31;3.77;;;3.37;;
2257;SDS011;1136;51.574;7.706;2023-05-10T00:34:57;4.00;;;3.70;;
2257;SDS011;1136;51.574;7.706;2023-05-10T00:37:24;3.73;;;3.37;;
2257;SDS011;1136;51.574;7.706;2023-05-10T00:39:51;3.00;;;2.80;;
2257;SDS011;1136;51.574;7.706;2023-05-10T00:42:17;2.90;;;2.70;;
2257;SDS011;1136;51.574;7.706;2023-05-10T00:44:44;3.80;;;3.40;;
2257;SDS011;1136;51.574;7.706;2023-05-10T00:47:11;3.40;;;3.10;;
2257;SDS011;1136;51.574;7.706;2023-05-10T00:49:37;4.13;;;3.37;;
2257;SDS011;1136;51.574;7.706;2023-05-10T00:52:04;2.93;;;2.70;;
2257;SDS011;1136;51.574;7.706;2023-05-10T00:54:30;3.53;;;3.23;;
2257;SDS011;1136;51.574;7.706;2023-05-10T00:57:00;5.53;;;3.90;;
2257;SDS011;1136;51.574;7.706;2023-05-10T00:59:27;4.13;;;3.83;;
2257;SDS011;1136;51.574;7.706;2023-05-10T01:01:54;5.07;;;4.67;;
2257;SDS011;1136;51.574;7.706;2023-05-10T01:04:21;4.23;;;3.83;;
2257;SDS011;1136;51.574;7.706;2023-05-10T01:06:52;5.17;;;4.77;;
2257;SDS011;1136;51.574;7.706;2023-05-10T01:09:20;5.77;;;5.27;;
2257;SDS011;1136;51.574;7.706;2023-05-10T01:11:47;5.87;;;5.37;;
2257;SDS011;1136;51.574;7.706;2023-05-10T01:14:15;6.27;;;5.73;;
2257;SDS011;1136;51.574;7.706;2023-05-10T01:16:45;6.40;;;5.90;;
2257;SDS011;1136;51.574;7.706;2023-05-10T01:19:22;7.43;;;6.80;;
2257;SDS011;1136;51.574;7.706;2023-05-10T01:35:42;7.37;;;6.60;;
2257;SDS011;1136;51.574;7.706;2023-05-10T01:38:17;8.20;;;7.40;;
2257;SDS011;1136;51.574;7.706;2023-05-10T01:43:37;8.40;;;7.60;;
2257;SDS011;1136;51.574;7.706;2023-05-10T01:46:10;8.57;;;7.77;;
2257;SDS011;1136;51.574;7.706;2023-05-10T01:48:51;10.37;;;8.23;;
2257;SDS011;1136;51.574;7.706;2023-05-10T01:51:23;10.53;;;9.43;;
2257;SDS011;1136;51.574;7.706;2023-05-10T01:53:51;10.37;;;8.93;;
2257;SDS011;1136;51.574;7.706;2023-05-10T01:56:21;11.20;;;10.10;;
2257;SDS011;1136;51.574;7.706;2023-05-10T01:58:50;12.90;;;11.10;;
2257;SDS011;1136;51.574;7.706;2023-05-10T02:01:18;11.27;;;10.07;;
2257;SDS011;1136;51.574;7.706;2023-05-10T02:03:47;11.93;;;10.63;;
2257;SDS011;1136;51.574;7.706;2023-05-10T02:06:15;13.63;;;10.80;;
2257;SDS011;1136;51.574;7.706;2023-05-10T02:08:42;12.47;;;10.93;;
2257;SDS011;1136;51.574;7.706;2023-05-10T02:11:10;14.90;;;12.07;;
2257;SDS011;1136;51.574;7.706;2023-05-10T02:13:37;13.07;;;11.47;;
2257;SDS011;1136;51.574;7.706;2023-05-10T02:16:05;14.00;;;11.90;;
2257;SDS011;1136;51.574;7.706;2023-05-10T02:18:33;13.67;;;11.40;;
2257;SDS011;1136;51.574;7.706;2023-05-10T02:21:01;14.73;;;12.90;;
2257;SDS011;1136;51.574;7.706;2023-05-10T02:23:29;14.57;;;13.03;;
2257;SDS011;1136;51.574;7.706;2023-05-10T02:25:56;19.93;;;14.60;;
2257;SDS011;1136;51.574;7.706;2023-05-10T02:28:23;22.37;;;16.00;;
2257;SDS011;1136;51.574;7.706;2023-05-10T02:30:50;17.10;;;14.20;;
2257;SDS011;1136;51.574;7.706;2023-05-10T02:33:17;19.37;;;15.23;;
2257;SDS011;1136;51.574;7.706;2023-05-10T02:35:45;18.77;;;13.17;;
2257;SDS011;1136;51.574;7.706;2023-05-10T02:38:13;14.00;;;11.87;;
2257;SDS011;1136;51.574;7.706;2023-05-10T02:40:41;14.30;;;11.90;;
2257;SDS011;1136;51.574;7.706;2023-05-10T02:43:12;13.73;;;11.27;;
2257;SDS011;1136;51.574;7.706;2023-05-10T02:45:40;12.83;;;11.43;;
2257;SDS011;1136;51.574;7.706;2023-05-10T02:48:07;15.23;;;11.97;;
2257;SDS011;1136;51.574;7.706;2023-05-10T02:50:34;12.50;;;8.90;;
2257;SDS011;1136;51.574;7.706;2023-05-10T02:53:05;9.13;;;8.30;;
2257;SDS011;1136;51.574;7.706;2023-05-10T02:55:35;9.17;;;7.87;;
2257;SDS011;1136;51.574;7.706;2023-05-10T02:58:04;10.03;;;6.97;;
2257;SDS011;1136;51.574;7.706;2023-05-10T03:00:31;6.03;;;5.40;;
2257;SDS011;1136;51.574;7.706;2023-05-10T03:02:57;5.43;;;4.87;;
2257;SDS011;1136;51.574;7.706;2023-05-10T03:05:24;6.17;;;4.70;;
2257;SDS011;1136;51.574;7.706;2023-05-10T03:07:51;5.10;;;4.50;;
2257;SDS011;1136;51.574;7.706;2023-05-10T03:10:18;5.37;;;4.97;;
2257;SDS011;1136;51.574;7.706;2023-05-10T03:18:15;4.70;;;4.23;;
2257;SDS011;1136;51.574;7.706;2023-05-10T03:21:03;5.83;;;5.10;;
2257;SDS011;1136;51.574;7.706;2023-05-10T03:25:59;5.30;;;4.87;;
2257;SDS011;1136;51.574;7.706;2023-05-10T03:28:25;6.23;;;5.63;;
2257;SDS011;1136;51.574;7.706;2023-05-10T03:30:53;4.47;;;4.17;;
2257;SDS011;1136;51.574;7.706;2023-05-10T03:33:20;5.27;;;4.77;;
2257;SDS011;1136;51.574;7.706;2023-05-10T03:35:47;5.00;;;4.60;;
2257;SDS011;1136;51.574;7.706;2023-05-10T03:38:14;4.43;;;4.13;;
2257;SDS011;1136;51.574;7.706;2023-05-10T03:40:40;7.27;;;4.80;;
2257;SDS011;1136;51.574;7.706;2023-05-10T03:43:07;4.80;;;4.40;;
2257;SDS011;1136;51.574;7.706;2023-05-10T03:45:33;4.90;;;4.40;;
2257;SDS011;1136;51.574;7.706;2023-05-10T03:48:00;4.20;;;3.90;;
2257;SDS011;1136;51.574;7.706;2023-05-10T03:50:27;4.97;;;4.57;;
2257;SDS011;1136;51.574;7.706;2023-05-10T03:52:54;5.77;;;4.30;;
2257;SDS011;1136;51.574;7.706;2023-05-10T03:55:21;5.40;;;4.60;;
2257;SDS011;1136;51.574;7.706;2023-05-10T03:57:48;4.17;;;3.47;;
2257;SDS011;1136;51.574;7.706;2023-05-10T04:00:16;4.00;;;3.60;;
2257;SDS011;1136;51.574;7.706;2023-05-10T04:02:43;3.60;;;2.83;;
2257;SDS011;1136;51.574;7.706;2023-05-10T04:05:12;3.60;;;3.03;;
2257;SDS011;1136;51.574;7.706;2023-05-10T04:07:38;4.20;;;3.30;;
2257;SDS011;1136;51.574;7.706;2023-05-10T04:10:05;3.17;;;2.87;;
2257;SDS011;1136;51.574;7.706;2023-05-10T04:12:33;2.67;;;2.47;;
2257;SDS011;1136;51.574;7.706;2023-05-10T04:15:00;2.97;;;2.67;;
2257;SDS011;1136;51.574;7.706;2023-05-10T04:17:26;3.30;;;3.10;;
2257;SDS011;1136;51.574;7.706;2023-05-10T04:19:53;4.70;;;3.10;;
2257;SDS011;1136;51.574;7.706;2023-05-10T04:22:21;4.70;;;3.70;;
2257;SDS011;1136;51.574;7.706;2023-05-10T04:24:47;4.73;;;4.23;;
2257;SDS011;1136;51.574;7.706;2023-05-10T04:27:14;4.37;;;3.97;;
2257;SDS011;1136;51.574;7.706;2023-05-10T04:29:41;4.27;;;3.87;;
2257;SDS011;1136;51.574;7.706;2023-05-10T04:32:07;4.63;;;4.27;;
2257;SDS011;1136;51.574;7.706;2023-05-10T04:34:34;5.30;;;4.60;;
2257;SDS011;1136;51.574;7.706;2023-05-10T04:37:00;6.03;;;5.43;;
2257;SDS011;1136;51.574;7.706;2023-05-10T04:39:27;4.73;;;4.33;;
2257;SDS011;1136;51.574;7.706;2023-05-10T04:41:53;5.97;;;5.37;;
2257;SDS011;1136;51.574;7.706;2023-05-10T04:44:20;7.27;;;5.80;;
2257;SDS011;1136;51.574;7.706;2023-05-10T04:46:46;6.77;;;6.13;;
2257;SDS011;1136;51.574;7.706;2023-05-10T04:49:13;6.70;;;5.00;;
2257;SDS011;1136;51.574;7.706;2023-05-10T04:51:40;6.20;;;5.70;;
2257;SDS011;1136;51.574;7.706;2023-05-10T04:54:07;6.40;;;5.43;;
2257;SDS011;1136;51.574;7.706;2023-05-10T04:56:34;6.50;;;5.60;;
2257;SDS011;1136;51.574;7.706;2023-05-10T04:59:00;6.93;;;5.87;;
2257;SDS011;1136;51.574;7.706;2023-05-10T05:01:27;7.10;;;6.40;;
2257;SDS011;1136;51.574;7.706;2023-05-10T05:03:54;7.87;;;7.07;;
2257;SDS011;1136;51.574;7.706;2023-05-10T05:06:20;10.30;;;7.40;;
2257;SDS011;1136;51.574;7.706;2023-05-10T05:08:47;8.33;;;7.53;;
2257;SDS011;1136;51.574;7.706;2023-05-10T05:11:15;8.93;;;7.60;;
2257;SDS011;1136;51.574;7.706;2023-05-10T05:13:43;10.40;;;8.00;;
2257;SDS011;1136;51.574;7.706;2023-05-10T05:16:09;14.10;;;8.80;;
2257;SDS011;1136;51.574;7.706;2023-05-10T05:18:37;10.67;;;9.37;;
2257;SDS011;1136;51.574;7.706;2023-05-10T05:21:13;11.03;;;9.13;;
2257;SDS011;1136;51.574;7.706;2023-05-10T05:23:43;15.87;;;11.63;;
2257;SDS011;1136;51.574;7.706;2023-05-10T05:26:10;15.20;;;12.40;;
2257;SDS011;1136;51.574;7.706;2023-05-10T05:28:37;15.30;;;11.30;;
2257;SDS011;1136;51.574;7.706;2023-05-10T05:31:04;19.53;;;13.43;;
2257;SDS011;1136;51.574;7.706;2023-05-10T05:33:31;23.37;;;15.73;;
2257;SDS011;1136;51.574;7.706;2023-05-10T05:36:00;19.57;;;16.00;;
2257;SDS011;1136;51.574;7.706;2023-05-10T05:38:27;22.40;;;14.50;;
2257;SDS011;1136;51.574;7.706;2023-05-10T05:40:54;19.27;;;15.33;;
2257;SDS011;1136;51.574;7.706;2023-05-10T05:43:21;25.53;;;16.87;;
2257;SDS011;1136;51.574;7.706;2023-05-10T05:45:47;24.43;;;17.07;;
2257;SDS011;1136;51.574;7.706;2023-05-10T05:48:14;28.30;;;19.40;;
2257;SDS011;1136;51.574;7.706;2023-05-10T05:50:40;23.53;;;17.47;;
2257;SDS011;1136;51.574;7.706;2023-05-10T05:53:07;26.93;;;18.33;;
2257;SDS011;1136;51.574;7.706;2023-05-10T05:55:35;26.67;;;17.83;;
2257;SDS011;1136;51.574;7.706;2023-05-10T05:58:02;26.23;;;18.60;;
2257;SDS011;1136;51.574;7.706;2023-05-10T06:00:29;23.77;;;18.50;;
2257;SDS011;1136;51.574;7.706;2023-05-10T06:02:56;28.70;;;20.27;;
2257;SDS011;1136;51.574;7.706;2023-05-10T06:05:23;26.40;;;19.30;;
2257;SDS011;1136;51.574;7.706;2023-05-10T06:07:50;28.10;;;19.80;;
2257;SDS011;1136;51.574;7.706;2023-05-10T06:10:16;32.67;;;22.10;;
2257;SDS011;1136;51.574;7.706;2023-05-10T06:12:43;30.37;;;21.23;;
2257;SDS011;1136;51.574;7.706;2023-05-10T06:15:10;29.00;;;21.33;;
2257;SDS011;1136;51.574;7.706;2023-05-10T06:17:37;31.80;;;21.80;;
2257;SDS011;1136;51.574;7.706;2023-05-10T06:20:05;30.63;;;22.60;;
2257;SDS011;1136;51.574;7.706;2023-05-10T06:22:32;31.13;;;20.80;;
2257;SDS011;1136;51.574;7.706;2023-05-10T06:24:59;32.10;;;22.37;;
2257;SDS011;1136;51.574;7.706;2023-05-10T06:27:25;36.00;;;22.80;;
2257;SDS011;1136;51.574;7.706;2023-05-10T06:29:52;30.30;;;22.67;;
2257;SDS011;1136;51.574;7.706;2023-05-10T06:32:30;35.50;;;23.63;;
2257;SDS011;1136;51.574;7.706;2023-05-10T06:34:57;37.70;;;24.70;;
2257;SDS011;1136;51.574;7.706;2023-05-10T06:37:23;42.90;;;25.40;;
2257;SDS011;1136;51.574;7.706;2023-05-10T06:39:50;36.20;;;24.10;;
2257;SDS011;1136;51.574;7.706;2023-05-10T06:42:17;38.47;;;26.23;;
2257;SDS011;1136;51.574;7.706;2023-05-10T06:44:43;35.37;;;26.63;;
2257;SDS011;1136;51.574;7.706;2023-05-10T06:47:10;37.60;;;26.03;;
2257;SDS011;1136;51.574;7.706;2023-05-10T06:49:36;41.83;;;25.43;;
2257;SDS011;1136;51.574;7.706;2023-05-10T06:52:03;42.43;;;28.20;;
2257;SDS011;1136;51.574;7.706;2023-05-10T06:54:30;38.87;;;27.07;;
2257;SDS011;1136;51.574;7.706;2023-05-10T06:56:56;41.80;;;27.80;;
2257;SDS011;1136;51.574;7.706;2023-05-10T06:59:23;38.87;;;28.27;;
2257;SDS011;1136;51.574;7.706;2023-05-10T07:01:50;39.40;;;28.40;;
2257;SDS011;1136;51.574;7.706;2023-05-10T07:04:17;44.50;;;30.10;;
2257;SDS011;1136;51.574;7.706;2023-05-10T07:06:43;40.87;;;28.00;;
2257;SDS011;1136;51.574;7.706;2023-05-10T07:09:12;42.80;;;30.70;;
2257;SDS011;1136;51.574;7.706;2023-05-10T07:11:39;50.20;;;31.17;;
2257;SDS011;1136;51.574;7.706;2023-05-10T07:14:06;45.43;;;32.30;;
2257;SDS011;1136;51.574;7.706;2023-05-10T07:16:32;48.53;;;32.27;;
2257;SDS011;1136;51.574;7.706;2023-05-10T07:18:59;48.00;;;31.87;;
2257;SDS011;1136;51.574;7.706;2023-05-10T07:21:26;55.07;;;33.97;;
2257;SDS011;1136;51.574;7.706;2023-05-10T07:23:55;50.50;;;32.80;;
2257;SDS011;1136;51.574;7.706;2023-05-10T07:26:21;54.73;;;35.90;;
2257;SDS011;1136;51.574;7.706;2023-05-10T07:28:48;52.63;;;34.57;;
2257;SDS011;1136;51.574;7.706;2023-05-10T07:31:15;54.37;;;34.37;;
2257;SDS011;1136;51.574;7.706;2023-05-10T07:33:41;51.77;;;31.97;;
2257;SDS011;1136;51.574;7.706;2023-05-10T07:36:08;51.73;;;33.93;;
2257;SDS011;1136;51.574;7.706;2023-05-10T07:38:35;52.63;;;34.97;;
2257;SDS011;1136;51.574;7.706;2023-05-10T07:41:04;55.63;;;35.17;;
2257;SDS011;1136;51.574;7.706;2023-05-10T07:43:31;56.13;;;36.60;;
2257;SDS011;1136;51.574;7.706;2023-05-10T07:45:58;51.23;;;35.90;;
2257;SDS011;1136;51.574;7.706;2023-05-10T07:48:25;57.90;;;38.53;;
2257;SDS011;1136;51.574;7.706;2023-05-10T07:50:52;56.13;;;37.60;;
2257;SDS011;1136;51.574;7.706;2023-05-10T07:53:19;59.53;;;38.83;;
2257;SDS011;1136;51.574;7.706;2023-05-10T07:55:50;52.10;;;36.00;;
2257;SDS011;1136;51.574;7.706;2023-05-10T07:58:17;51.97;;;37.37;;
2257;SDS011;1136;51.574;7.706;2023-05-10T08:00:44;45.07;;;34.03;;
2257;SDS011;1136;51.574;7.706;2023-05-10T08:03:10;51.07;;;34.33;;
2257;SDS011;1136;51.574;7.706;2023-05-10T08:05:37;51.50;;;35.77;;
2257;SDS011;1136;51.574;7.706;2023-05-10T08:08:10;47.40;;;36.30;;
2257;SDS011;1136;51.574;7.706;2023-05-10T08:10:37;42.00;;;32.87;;
2257;SDS011;1136;51.574;7.706;2023-05-10T08:13:04;44.67;;;34.87;;
2257;SDS011;1136;51.574;7.706;2023-05-10T08:15:30;42.13;;;31.70;;
2257;SDS011;1136;51.574;7.706;2023-05-10T08:17:57;40.27;;;33.43;;
2257;SDS011;1136;51.574;7.706;2023-05-10T08:20:23;43.30;;;32.17;;
2257;SDS011;1136;51.574;7.706;2023-05-10T08:22:50;41.43;;;32.30;;
2257;SDS011;1136;51.574;7.706;2023-05-10T08:25:17;35.27;;;29.90;;
2257;SDS011;1136;51.574;7.706;2023-05-10T08:27:44;36.70;;;30.90;;
2257;SDS011;1136;51.574;7.706;2023-05-10T08:30:11;36.40;;;28.67;;
2257;SDS011;1136;51.574;7.706;2023-05-10T08:32:38;34.17;;;29.00;;
2257;SDS011;1136;51.574;7.706;2023-05-10T08:35:04;33.37;;;27.20;;
2257;SDS011;1136;51.574;7.706;2023-05-10T08:37:31;31.87;;;26.73;;
2257;SDS011;1136;51.574;7.706;2023-05-10T08:39:59;31.57;;;27.20;;
2257;SDS011;1136;51.574;7.706;2023-05-10T08:42:25;30.50;;;26.10;;
2257;SDS011;1136;51.574;7.706;2023-05-10T08:44:55;35.80;;;28.40;;
2257;SDS011;1136;51.574;7.706;2023-05-10T08:47:23;41.90;;;29.63;;
2257;SDS011;1136;51.574;7.706;2023-05-10T08:49:51;35.60;;;28.23;;
2257;SDS011;1136;51.574;7.706;2023-05-10T08:52:18;37.87;;;30.20;;
2257;SDS011;1136;51.574;7.706;2023-05-10T08:54:45;32.33;;;27.40;;
2257;SDS011;1136;51.574;7.706;2023-05-10T08:57:12;36.33;;;27.60;;
2257;SDS011;1136;51.574;7.706;2023-05-10T08:59:39;29.90;;;24.27;;
2257;SDS011;1136;51.574;7.706;2023-05-10T09:02:06;25.40;;;21.70;;
2257;SDS011;1136;51.574;7.706;2023-05-10T09:04:34;28.43;;;21.73;;
2257;SDS011;1136;51.574;7.706;2023-05-10T09:07:01;25.73;;;22.90;;
2257;SDS011;1136;51.574;7.706;2023-05-10T09:09:28;22.77;;;20.30;;
2257;SDS011;1136;51.574;7.706;2023-05-10T09:11:55;24.07;;;19.40;;
2257;SDS011;1136;51.574;7.706;2023-05-10T09:14:23;19.53;;;17.43;;
2257;SDS011;1136;51.574;7.706;2023-05-10T09:16:50;20.17;;;18.07;;
2257;SDS011;1136;51.574;7.706;2023-05-10T09:19:17;21.97;;;18.43;;
2257;SDS011;1136;51.574;7.706;2023-05-10T09:21:43;20.10;;;18.03;;
2257;SDS011;1136;51.574;7.706;2023-05-10T09:24:10;20.60;;;17.53;;
2257;SDS011;1136;51.574;7.706;2023-05-10T09:26:42;20.80;;;18.60;;
2257;SDS011;1136;51.574;7.706;2023-05-10T09:29:12;23.73;;;19.57;;
2257;SDS011;1136;51.574;7.706;2023-05-10T09:31:43;28.63;;;19.87;;
2257;SDS011;1136;51.574;7.706;2023-05-10T09:34:19;23.60;;;20.77;;
2257;SDS011;1136;51.574;7.706;2023-05-10T09:36:51;28.43;;;22.47;;
2257;SDS011;1136;51.574;7.706;2023-05-10T09:39:18;32.07;;;24.37;;
2257;SDS011;1136;51.574;7.706;2023-05-10T09:41:45;27.13;;;22.33;;
2257;SDS011;1136;51.574;7.706;2023-05-10T09:44:16;28.57;;;22.77;;
2257;SDS011;1136;51.574;7.706;2023-05-10T09:46:48;21.70;;;18.90;;
2257;SDS011;1136;51.574;7.706;2023-05-10T09:49:15;18.47;;;16.60;;
2257;SDS011;1136;51.574;7.706;2023-05-10T09:51:42;20.10;;;18.00;;
2257;SDS011;1136;51.574;7.706;2023-05-10T09:54:13;19.50;;;17.10;;
2257;SDS011;1136;51.574;7.706;2023-05-10T09:56:41;23.40;;;18.27;;
2257;SDS011;1136;51.574;7.706;2023-05-10T09:59:08;23.30;;;19.03;;
2257;SDS011;1136;51.574;7.706;2023-05-10T10:01:36;22.50;;;20.20;;
2257;SDS011;1136;51.574;7.706;2023-05-10T10:04:04;19.47;;;17.37;;
2257;SDS011;1136;51.574;7.706;2023-05-10T10:06:41;19.20;;;17.33;;
2257;SDS011;1136;51.574;7.706;2023-05-10T10:09:08;18.77;;;15.70;;
2257;SDS011;1136;51.574;7.706;2023-05-10T10:11:36;20.10;;;17.57;;
2257;SDS011;1136;51.574;7.706;2023-05-10T10:14:04;19.07;;;16.77;;
2257;SDS011;1136;51.574;7.706;2023-05-10T10:16:31;15.83;;;14.30;;
2257;SDS011;1136;51.574;7.706;2023-05-10T10:18:58;16.23;;;14.70;;
2257;SDS011;1136;51.574;7.706;2023-05-10T10:21:25;16.07;;;14.30;;
2257;SDS011;1136;51.574;7.706;2023-05-10T10:23:51;17.10;;;14.10;;
2257;SDS011;1136;51.574;7.706;2023-05-10T10:26:19;17.30;;;15.50;;
2257;SDS011;1136;51.574;7.706;2023-05-10T10:31:47;18.30;;;16.53;;
2257;SDS011;1136;51.574;7.706;2023-05-10T10:34:25;21.17;;;16.70;;
2257;SDS011;1136;51.574;7.706;2023-05-10T10:36:56;17.13;;;15.33;;
2257;SDS011;1136;51.574;7.706;2023-05-10T10:39:23;16.93;;;15.17;;
2257;SDS011;1136;51.574;7.706;2023-05-10T10:41:52;13.80;;;12.60;;
2257;SDS011;1136;51.574;7.706;2023-05-10T10:47:04;11.73;;;10.63;;
2257;SDS011;1136;51.574;7.706;2023-05-10T10:49:38;13.77;;;12.43;;
2257;SDS011;1136;51.574;7.706;2023-05-10T10:54:59;12.27;;;11.23;;
2257;SDS011;1136;51.574;7.706;2023-05-10T10:57:35;12.70;;;11.73;;
2257;SDS011;1136;51.574;7.706;2023-05-10T11:00:23;11.23;;;10.33;;
2257;SDS011;1136;51.574;7.706;2023-05-10T11:05:24;13.27;;;12.10;;
2257;SDS011;1136;51.574;7.706;2023-05-10T11:07:55;11.70;;;10.70;;
2257;SDS011;1136;51.574;7.706;2023-05-10T11:10:23;12.00;;;10.83;;
2257;SDS011;1136;51.574;7.706;2023-05-10T11:13:04;10.77;;;9.67;;
2257;SDS011;1136;51.574;7.706;2023-05-10T11:15:37;10.67;;;9.57;;
2257;SDS011;1136;51.574;7.706;2023-05-10T11:20:44;9.17;;;8.40;;
2257;SDS011;1136;51.574;7.706;2023-05-10T11:23:13;9.43;;;8.50;;
2257;SDS011;1136;51.574;7.706;2023-05-10T11:25:42;9.43;;;8.63;;
2257;SDS011;1136;51.574;7.706;2023-05-10T11:28:13;10.90;;;9.80;;
2257;SDS011;1136;51.574;7.706;2023-05-10T11:30:41;10.07;;;9.00;;
2257;SDS011;1136;51.574;7.706;2023-05-10T11:33:09;9.47;;;8.67;;
2257;SDS011;1136;51.574;7.706;2023-05-10T11:35:38;10.60;;;9.60;;
2257;SDS011;1136;51.574;7.706;2023-05-10T11:38:09;10.63;;;9.00;;
2257;SDS011;1136;51.574;7.706;2023-05-10T11:40:37;10.70;;;9.70;;
2257;SDS011;1136;51.574;7.706;2023-05-10T11:43:04;12.40;;;11.13;;
2257;SDS011;1136;51.574;7.706;2023-05-10T11:45:32;15.33;;;13.83;;
2257;SDS011;1136;51.574;7.706;2023-05-10T11:47:59;15.77;;;14.17;;
2257;SDS011;1136;51.574;7.706;2023-05-10T11:50:25;17.00;;;14.80;;
2257;SDS011;1136;51.574;7.706;2023-05-10T11:52:53;17.43;;;15.00;;
2257;SDS011;1136;51.574;7.706;2023-05-10T11:55:20;17.00;;;14.60;;
2257;SDS011;1136;51.574;7.706;2023-05-10T11:57:47;16.40;;;13.50;;
2257;SDS011;1136;51.574;7.706;2023-05-10T12:00:18;19.63;;;14.53;;
2257;SDS011;1136;51.574;7.706;2023-05-10T12:02:45;20.33;;;14.20;;
2257;SDS011;1136;51.574;7.706;2023-05-10T12:05:12;17.07;;;11.53;;
2257;SDS011;1136;51.574;7.706;2023-05-10T12:07:38;12.03;;;10.80;;
2257;SDS011;1136;51.574;7.706;2023-05-10T12:12:37;12.10;;;10.90;;
2257;SDS011;1136;51.574;7.706;2023-05-10T12:15:04;12.50;;;11.20;;
2257;SDS011;1136;51.574;7.706;2023-05-10T12:17:32;12.80;;;10.40;;
2257;SDS011;1136;51.574;7.706;2023-05-10T12:20:12;12.80;;;11.40;;
2257;SDS011;1136;51.574;7.706;2023-05-10T12:22:43;15.23;;;12.80;;
2257;SDS011;1136;51.574;7.706;2023-05-10T12:25:11;17.03;;;14.90;;
2257;SDS011;1136;51.574;7.706;2023-05-10T12:27:37;17.67;;;15.77;;
2257;SDS011;1136;51.574;7.706;2023-05-10T12:30:04;19.30;;;15.90;;
2257;SDS011;1136;51.574;7.706;2023-05-10T12:32:38;19.23;;;17.17;;
2257;SDS011;1136;51.574;7.706;2023-05-10T12:35:05;18.20;;;16.20;;
2257;SDS011;1136;51.574;7.706;2023-05-10T12:37:32;17.90;;;16.00;;
2257;SDS011;1136;51.574;7.706;2023-05-10T12:40:02;17.47;;;15.53;;
2257;SDS011;1136;51.574;7.706;2023-05-10T12:42:31;16.63;;;15.03;;
2257;SDS011;1136;51.574;7.706;2023-05-10T12:44:58;18.90;;;15.40;;
2257;SDS011;1136;51.574;7.706;2023-05-10T12:47:24;16.13;;;13.90;;
2257;SDS011;1136;51.574;7.706;2023-05-10T12:49:51;18.73;;;14.00;;
2257;SDS011;1136;51.574;7.706;2023-05-10T12:52:18;16.67;;;13.30;;
2257;SDS011;1136;51.574;7.706;2023-05-10T12:54:44;18.07;;;13.67;;
2257;SDS011;1136;51.574;7.706;2023-05-10T12:57:11;15.50;;;13.10;;
2257;SDS011;1136;51.574;7.706;2023-05-10T12:59:37;14.40;;;12.20;;
2257;SDS011;1136;51.574;7.706;2023-05-10T13:02:04;14.40;;;13.00;;
2257;SDS011;1136;51.574;7.706;2023-05-10T13:04:30;16.37;;;14.33;;
2257;SDS011;1136;51.574;7.706;2023-05-10T13:06:57;15.50;;;13.90;;
2257;SDS011;1136;51.574;7.706;2023-05-10T13:09:26;14.67;;;13.07;;
2257;SDS011;1136;51.574;7.706;2023-05-10T13:11:53;14.27;;;12.90;;
2257;SDS011;1136;51.574;7.706;2023-05-10T13:14:20;14.47;;;13.23;;
2257;SDS011;1136;51.574;7.706;2023-05-10T13:16:47;14.20;;;11.60;;
2257;SDS011;1136;51.574;7.706;2023-05-10T13:19:16;12.70;;;10.03;;
2257;SDS011;1136;51.574;7.706;2023-05-10T13:21:43;11.13;;;10.00;;
2257;SDS011;1136;51.574;7.706;2023-05-10T13:24:13;11.67;;;10.50;;
2257;SDS011;1136;51.574;7.706;2023-05-10T13:26:40;9.97;;;9.17;;
2257;SDS011;1136;51.574;7.706;2023-05-10T13:29:07;10.47;;;9.57;;
2257;SDS011;1136;51.574;7.706;2023-05-10T13:31:34;11.03;;;10.03;;
2257;SDS011;1136;51.574;7.706;2023-05-10T13:34:01;12.97;;;11.70;;
2257;SDS011;1136;51.574;7.706;2023-05-10T13:36:28;14.70;;;13.40;;
2257;SDS011;1136;51.574;7.706;2023-05-10T13:38:55;15.40;;;14.03;;
2257;SDS011;1136;51.574;7.706;2023-05-10T13:41:21;14.13;;;12.50;;
2257;SDS011;1136;51.574;7.706;2023-05-10T13:43:48;12.90;;;11.60;;
2257;SDS011;1136;51.574;7.706;2023-05-10T13:46:16;14.50;;;12.33;;
2257;SDS011;1136;51.574;7.706;2023-05-10T13:48:43;12.67;;;11.43;;
2257;SDS011;1136;51.574;7.706;2023-05-10T13:51:09;14.20;;;12.87;;
2257;SDS011;1136;51.574;7.706;2023-05-10T13:53:35;15.20;;;13.60;;
2257;SDS011;1136;51.574;7.706;2023-05-10T13:56:02;12.93;;;11.70;;
2257;SDS011;1136;51.574;7.706;2023-05-10T13:58:29;12.37;;;11.27;;
2257;SDS011;1136;51.574;7.706;2023-05-10T14:00:56;11.33;;;10.33;;
2257;SDS011;1136;51.574;7.706;2023-05-10T14:03:23;12.10;;;11.00;;
2257;SDS011;1136;51.574;7.706;2023-05-10T14:05:49;13.27;;;11.33;;
2257;SDS011;1136;51.574;7.706;2023-05-10T14:08:16;11.00;;;9.90;;
2257;SDS011;1136;51.574;7.706;2023-05-10T14:10:43;13.27;;;11.03;;
2257;SDS011;1136;51.574;7.706;2023-05-10T14:13:10;10.50;;;9.60;;
2257;SDS011;1136;51.574;7.706;2023-05-10T14:15:36;12.17;;;11.07;;
2257;SDS011;1136;51.574;7.706;2023-05-10T14:18:03;13.63;;;12.20;;
2257;SDS011;1136;51.574;7.706;2023-05-10T14:20:30;13.80;;;12.10;;
2257;SDS011;1136;51.574;7.706;2023-05-10T14:22:58;12.57;;;11.33;;
2257;SDS011;1136;51.574;7.706;2023-05-10T14:25:24;15.63;;;14.13;;
2257;SDS011;1136;51.574;7.706;2023-05-10T14:27:51;14.70;;;13.40;;
2257;SDS011;1136;51.574;7.706;2023-05-10T14:30:20;14.03;;;12.73;;
2257;SDS011;1136;51.574;7.706;2023-05-10T14:32:47;13.10;;;11.93;;
2257;SDS011;1136;51.574;7.706;2023-05-10T14:35:13;13.50;;;12.10;;
2257;SDS011;1136;51.574;7.706;2023-05-10T14:37:44;13.93;;;12.53;;
2257;SDS011;1136;51.574;7.706;2023-05-10T14:40:11;12.60;;;11.50;;
2257;SDS011;1136;51.574;7.706;2023-05-10T14:42:38;14.90;;;13.40;;
2257;SDS011;1136;51.574;7.706;2023-05-10T14:45:05;14.57;;;13.33;;
2257;SDS011;1136;51.574;7.706;2023-05-10T14:47:32;15.73;;;14.23;;
2257;SDS011;1136;51.574;7.706;2023-05-10T14:49:58;15.33;;;13.90;;
2257;SDS011;1136;51.574;7.706;2023-05-10T14:52:25;16.43;;;12.33;;
2257;SDS011;1136;51.574;7.706;2023-05-10T14:54:52;13.13;;;11.93;;
2257;SDS011;1136;51.574;7.706;2023-05-10T14:57:18;14.03;;;12.23;;
2257;SDS011;1136;51.574;7.706;2023-05-10T14:59:45;11.57;;;10.63;;
2257;SDS011;1136;51.574;7.706;2023-05-10T15:02:12;13.03;;;11.93;;
2257;SDS011;1136;51.574;7.706;2023-05-10T15:04:40;14.03;;;12.30;;
2257;SDS011;1136;51.574;7.706;2023-05-10T15:07:07;13.07;;;11.67;;
2257;SDS011;1136;51.574;7.706;2023-05-10T15:09:33;11.90;;;10.70;;
2257;SDS011;1136;51.574;7.706;2023-05-10T15:12:00;11.10;;;10.10;;
2257;SDS011;1136;51.574;7.706;2023-05-10T15:14:26;11.73;;;10.70;;
2257;SDS011;1136;51.574;7.706;2023-05-10T15:16:53;10.73;;;9.73;;
2257;SDS011;1136;51.574;7.706;2023-05-10T15:19:19;11.27;;;10.20;;
2257;SDS011;1136;51.574;7.706;2023-05-10T15:21:46;10.30;;;9.07;;
2257;SDS011;1136;51.574;7.706;2023-05-10T15:24:13;9.80;;;8.90;;
2257;SDS011;1136;51.574;7.706;2023-05-10T15:26:40;9.90;;;8.90;;
2257;SDS011;1136;51.574;7.706;2023-05-10T15:29:07;9.33;;;8.43;;
2257;SDS011;1136;51.574;7.706;2023-05-10T15:31:33;7.07;;;6.57;;
2257;SDS011;1136;51.574;7.706;2023-05-10T15:34:03;8.30;;;7.30;;
2257;SDS011;1136;51.574;7.706;2023-05-10T15:36:31;9.87;;;8.87;;
2257;SDS011;1136;51.574;7.706;2023-05-10T15:38:58;8.63;;;7.87;;